sensor_id;sensor_type;location;lat;lon;timestamp;P1;durP1;ratioP1;P2;durP2;ratioP2
26920;SDS011;14483;47.844;9.660;2023-07-30T00:02:04;0.00;;;0.00;;
26920;SDS011;14483;47.844;9.660;2023-07-30T00:04:30;0.00;;;0.00;;
26920;SDS011;14483;47.844;9.660;2023-07-30T00:06:56;0.10;;;0.10;;
26920;SDS011;14483;47.844;9.660;2023-07-30T00:09:23;0.00;;;0.00;;
26920;SDS011;14483;47.844;9.660;2023-07-30T00:11:49;0.00;;;0.00;;
26920;SDS011;14483;47.844;9.660;2023-07-30T00:14:16;0.00;;;0.00;;
26920;SDS011;14483;47.844;9.660;2023-07-30T00:16:43;0.00;;;0.00;;
26920;SDS011;14483;47.844;9.660;2023-07-30T00:19:10;0.00;;;0.00;;
26920;SDS011;14483;47.844;9.660;2023-07-30T00:21:36;0.00;;;0.00;;
26920;SDS011;14483;47.844;9.660;2023-07-30T00:24:03;0.10;;;0.10;;
26920;SDS011;14483;47.844;9.660;2023-07-30T00:26:29;0.00;;;0.00;;
26920;SDS011;14483;47.844;9.660;2023-07-30T00:28:56;0.00;;;0.00;;
26920;SDS011;14483;47.844;9.660;2023-07-30T00:31:22;0.00;;;0.00;;
26920;SDS011;14483;47.844;9.660;2023-07-30T00:33:50;0.00;;;0.00;;
26920;SDS011;14483;47.844;9.660;2023-07-30T00:36:16;0.00;;;0.00;;
26920;SDS011;14483;47.844;9.660;2023-07-30T00:38:42;0.00;;;0.00;;
26920;SDS011;14483;47.844;9.660;2023-07-30T00:41:09;0.15;;;0.15;;
26920;SDS011;14483;47.844;9.660;2023-07-30T00:43:35;0.00;;;0.00;;
26920;SDS011;14483;47.844;9.660;2023-07-30T00:46:01;0.00;;;0.00;;
26920;SDS011;14483;47.844;9.660;2023-07-30T00:48:28;0.00;;;0.00;;
26920;SDS011;14483;47.844;9.660;2023-07-30T00:50:55;0.00;;;0.00;;
26920;SDS011;14483;47.844;9.660;2023-07-30T00:53:23;0.00;;;0.00;;
26920;SDS011;14483;47.844;9.660;2023-07-30T00:55:50;0.00;;;0.00;;
26920;SDS011;14483;47.844;9.660;2023-07-30T00:58:16;0.00;;;0.00;;
26920;SDS011;14483;47.844;9.660;2023-07-30T01:00:43;0.00;;;0.00;;
26920;SDS011;14483;47.844;9.660;2023-07-30T01:03:09;0.00;;;0.00;;
26920;SDS011;14483;47.844;9.660;2023-07-30T01:05:36;0.00;;;0.00;;
26920;SDS011;14483;47.844;9.660;2023-07-30T01:08:04;0.08;;;0.08;;
26920;SDS011;14483;47.844;9.660;2023-07-30T01:10:30;0.00;;;0.00;;
26920;SDS011;14483;47.844;9.660;2023-07-30T01:12:57;0.00;;;0.00;;
26920;SDS011;14483;47.844;9.660;2023-07-30T01:15:25;0.00;;;0.00;;
26920;SDS011;14483;47.844;9.660;2023-07-30T01:17:51;0.05;;;0.05;;
26920;SDS011;14483;47.844;9.660;2023-07-30T01:20:18;0.00;;;0.00;;
26920;SDS011;14483;47.844;9.660;2023-07-30T01:22:45;0.00;;;0.00;;
26920;SDS011;14483;47.844;9.660;2023-07-30T01:25:12;0.00;;;0.00;;
26920;SDS011;14483;47.844;9.660;2023-07-30T01:27:39;0.00;;;0.00;;
26920;SDS011;14483;47.844;9.660;2023-07-30T01:30:08;0.00;;;0.00;;
26920;SDS011;14483;47.844;9.660;2023-07-30T01:32:35;0.10;;;0.10;;
26920;SDS011;14483;47.844;9.660;2023-07-30T01:35:02;0.10;;;0.10;;
26920;SDS011;14483;47.844;9.660;2023-07-30T01:37:29;0.00;;;0.00;;
26920;SDS011;14483;47.844;9.660;2023-07-30T01:39:57;0.10;;;0.10;;
26920;SDS011;14483;47.844;9.660;2023-07-30T01:42:27;0.05;;;0.05;;
26920;SDS011;14483;47.844;9.660;2023-07-30T01:44:54;0.00;;;0.00;;
26920;SDS011;14483;47.844;9.660;2023-07-30T01:47:20;0.30;;;0.30;;
26920;SDS011;14483;47.844;9.660;2023-07-30T01:49:46;0.00;;;0.00;;
26920;SDS011;14483;47.844;9.660;2023-07-30T01:52:13;0.00;;;0.00;;
26920;SDS011;14483;47.844;9.660;2023-07-30T01:54:39;0.00;;;0.00;;
26920;SDS011;14483;47.844;9.660;2023-07-30T01:57:08;0.00;;;0.00;;
26920;SDS011;14483;47.844;9.660;2023-07-30T01:59:35;0.00;;;0.00;;
26920;SDS011;14483;47.844;9.660;2023-07-30T02:02:01;0.00;;;0.00;;
26920;SDS011;14483;47.844;9.660;2023-07-30T02:04:27;0.00;;;0.00;;
26920;SDS011;14483;47.844;9.660;2023-07-30T02:06:54;0.00;;;0.00;;
26920;SDS011;14483;47.844;9.660;2023-07-30T02:09:20;0.00;;;0.00;;
26920;SDS011;14483;47.844;9.660;2023-07-30T02:11:46;0.10;;;0.10;;
26920;SDS011;14483;47.844;9.660;2023-07-30T02:14:14;0.00;;;0.00;;
26920;SDS011;14483;47.844;9.660;2023-07-30T02:16:40;0.47;;;0.47;;
26920;SDS011;14483;47.844;9.660;2023-07-30T02:19:07;0.00;;;0.00;;
26920;SDS011;14483;47.844;9.660;2023-07-30T02:21:34;0.00;;;0.00;;
26920;SDS011;14483;47.844;9.660;2023-07-30T02:24:04;0.00;;;0.00;;
26920;SDS011;14483;47.844;9.660;2023-07-30T02:26:34;4.32;;;0.55;;
26920;SDS011;14483;47.844;9.660;2023-07-30T02:29:01;0.00;;;0.00;;
26920;SDS011;14483;47.844;9.660;2023-07-30T02:31:29;0.00;;;0.00;;
26920;SDS011;14483;47.844;9.660;2023-07-30T02:33:55;0.00;;;0.00;;
26920;SDS011;14483;47.844;9.660;2023-07-30T02:36:22;0.00;;;0.00;;
26920;SDS011;14483;47.844;9.660;2023-07-30T02:38:48;1.13;;;0.75;;
26920;SDS011;14483;47.844;9.660;2023-07-30T02:41:14;0.00;;;0.00;;
26920;SDS011;14483;47.844;9.660;2023-07-30T02:43:41;0.00;;;0.00;;
26920;SDS011;14483;47.844;9.660;2023-07-30T02:46:07;0.00;;;0.00;;
26920;SDS011;14483;47.844;9.660;2023-07-30T02:48:35;0.17;;;0.17;;
26920;SDS011;14483;47.844;9.660;2023-07-30T02:51:01;0.20;;;0.20;;
26920;SDS011;14483;47.844;9.660;2023-07-30T02:53:27;0.20;;;0.20;;
26920;SDS011;14483;47.844;9.660;2023-07-30T02:55:54;0.00;;;0.00;;
26920;SDS011;14483;47.844;9.660;2023-07-30T02:58:21;0.00;;;0.00;;
26920;SDS011;14483;47.844;9.660;2023-07-30T03:00:47;0.00;;;0.00;;
26920;SDS011;14483;47.844;9.660;2023-07-30T03:03:13;0.00;;;0.00;;
26920;SDS011;14483;47.844;9.660;2023-07-30T03:05:42;0.00;;;0.00;;
26920;SDS011;14483;47.844;9.660;2023-07-30T03:08:09;0.00;;;0.00;;
26920;SDS011;14483;47.844;9.660;2023-07-30T03:10:35;0.00;;;0.00;;
26920;SDS011;14483;47.844;9.660;2023-07-30T03:13:02;0.00;;;0.00;;
26920;SDS011;14483;47.844;9.660;2023-07-30T03:15:28;0.00;;;0.00;;
26920;SDS011;14483;47.844;9.660;2023-07-30T03:17:54;0.10;;;0.10;;
26920;SDS011;14483;47.844;9.660;2023-07-30T03:20:21;2.28;;;1.30;;
26920;SDS011;14483;47.844;9.660;2023-07-30T03:22:48;2.95;;;1.65;;
26920;SDS011;14483;47.844;9.660;2023-07-30T03:25:15;3.63;;;1.85;;
26920;SDS011;14483;47.844;9.660;2023-07-30T03:27:41;3.15;;;1.83;;
26920;SDS011;14483;47.844;9.660;2023-07-30T03:30:08;2.80;;;1.63;;
26920;SDS011;14483;47.844;9.660;2023-07-30T03:32:34;2.88;;;1.60;;
26920;SDS011;14483;47.844;9.660;2023-07-30T03:35:01;4.40;;;1.80;;
26920;SDS011;14483;47.844;9.660;2023-07-30T03:37:27;2.33;;;1.60;;
26920;SDS011;14483;47.844;9.660;2023-07-30T03:39:55;3.03;;;1.75;;
26920;SDS011;14483;47.844;9.660;2023-07-30T03:42:21;2.95;;;2.08;;
26920;SDS011;14483;47.844;9.660;2023-07-30T03:44:47;3.17;;;2.00;;
26920;SDS011;14483;47.844;9.660;2023-07-30T03:47:14;2.20;;;1.60;;
26920;SDS011;14483;47.844;9.660;2023-07-30T03:49:40;3.40;;;1.95;;
26920;SDS011;14483;47.844;9.660;2023-07-30T03:52:06;2.47;;;1.58;;
26920;SDS011;14483;47.844;9.660;2023-07-30T03:54:33;6.75;;;1.70;;
26920;SDS011;14483;47.844;9.660;2023-07-30T03:57:00;2.00;;;1.40;;
26920;SDS011;14483;47.844;9.660;2023-07-30T03:59:27;3.03;;;1.60;;
26920;SDS011;14483;47.844;9.660;2023-07-30T04:01:54;5.22;;;1.50;;
26920;SDS011;14483;47.844;9.660;2023-07-30T04:04:20;3.55;;;1.70;;
26920;SDS011;14483;47.844;9.660;2023-07-30T04:06:47;2.25;;;1.50;;
26920;SDS011;14483;47.844;9.660;2023-07-30T04:09:13;6.72;;;2.40;;
26920;SDS011;14483;47.844;9.660;2023-07-30T04:11:39;3.92;;;1.90;;
26920;SDS011;14483;47.844;9.660;2023-07-30T04:14:07;3.30;;;2.03;;
26920;SDS011;14483;47.844;9.660;2023-07-30T04:16:34;2.92;;;1.73;;
26920;SDS011;14483;47.844;9.660;2023-07-30T04:19:00;3.83;;;2.10;;
26920;SDS011;14483;47.844;9.660;2023-07-30T04:21:26;2.55;;;1.75;;
26920;SDS011;14483;47.844;9.660;2023-07-30T04:23:53;2.80;;;1.90;;
26920;SDS011;14483;47.844;9.660;2023-07-30T04:26:19;4.82;;;2.00;;
26920;SDS011;14483;47.844;9.660;2023-07-30T04:28:45;3.83;;;1.92;;
26920;SDS011;14483;47.844;9.660;2023-07-30T04:31:13;3.72;;;1.85;;
26920;SDS011;14483;47.844;9.660;2023-07-30T04:33:39;3.58;;;1.65;;
26920;SDS011;14483;47.844;9.660;2023-07-30T04:36:06;2.72;;;1.55;;
26920;SDS011;14483;47.844;9.660;2023-07-30T04:38:32;3.10;;;1.70;;
26920;SDS011;14483;47.844;9.660;2023-07-30T04:40:59;2.65;;;1.80;;
26920;SDS011;14483;47.844;9.660;2023-07-30T04:43:25;4.72;;;1.98;;
26920;SDS011;14483;47.844;9.660;2023-07-30T04:45:52;4.03;;;2.38;;
26920;SDS011;14483;47.844;9.660;2023-07-30T04:48:19;4.90;;;2.25;;
26920;SDS011;14483;47.844;9.660;2023-07-30T04:50:46;3.05;;;1.73;;
26920;SDS011;14483;47.844;9.660;2023-07-30T04:53:12;4.05;;;1.60;;
26920;SDS011;14483;47.844;9.660;2023-07-30T04:55:38;3.67;;;1.80;;
26920;SDS011;14483;47.844;9.660;2023-07-30T04:58:05;5.75;;;2.28;;
26920;SDS011;14483;47.844;9.660;2023-07-30T05:00:31;5.78;;;3.33;;
26920;SDS011;14483;47.844;9.660;2023-07-30T05:02:57;3.00;;;2.10;;
26920;SDS011;14483;47.844;9.660;2023-07-30T05:05:25;2.70;;;1.67;;
26920;SDS011;14483;47.844;9.660;2023-07-30T05:07:51;2.22;;;1.42;;
26920;SDS011;14483;47.844;9.660;2023-07-30T05:10:18;3.00;;;2.00;;
26920;SDS011;14483;47.844;9.660;2023-07-30T05:12:45;3.55;;;1.75;;
26920;SDS011;14483;47.844;9.660;2023-07-30T05:15:11;2.42;;;1.67;;
26920;SDS011;14483;47.844;9.660;2023-07-30T05:17:37;2.78;;;1.63;;
26920;SDS011;14483;47.844;9.660;2023-07-30T05:20:04;4.57;;;1.80;;
26920;SDS011;14483;47.844;9.660;2023-07-30T05:22:32;3.40;;;1.92;;
26920;SDS011;14483;47.844;9.660;2023-07-30T05:24:58;4.32;;;1.92;;
26920;SDS011;14483;47.844;9.660;2023-07-30T05:27:24;2.78;;;1.90;;
26920;SDS011;14483;47.844;9.660;2023-07-30T05:29:53;4.57;;;2.22;;
26920;SDS011;14483;47.844;9.660;2023-07-30T05:32:19;3.65;;;2.78;;
26920;SDS011;14483;47.844;9.660;2023-07-30T05:34:45;3.47;;;2.05;;
26920;SDS011;14483;47.844;9.660;2023-07-30T05:37:12;2.92;;;1.77;;
26920;SDS011;14483;47.844;9.660;2023-07-30T05:39:39;4.15;;;2.60;;
26920;SDS011;14483;47.844;9.660;2023-07-30T05:42:06;4.30;;;2.42;;
26920;SDS011;14483;47.844;9.660;2023-07-30T05:44:32;5.97;;;2.42;;
26920;SDS011;14483;47.844;9.660;2023-07-30T05:46:58;3.30;;;2.33;;
26920;SDS011;14483;47.844;9.660;2023-07-30T05:49:25;3.70;;;2.13;;
26920;SDS011;14483;47.844;9.660;2023-07-30T05:51:51;3.08;;;2.10;;
26920;SDS011;14483;47.844;9.660;2023-07-30T05:54:17;3.38;;;2.30;;
26920;SDS011;14483;47.844;9.660;2023-07-30T05:56:45;3.42;;;2.05;;
26920;SDS011;14483;47.844;9.660;2023-07-30T05:59:12;4.38;;;1.95;;
26920;SDS011;14483;47.844;9.660;2023-07-30T06:01:39;4.40;;;2.20;;
26920;SDS011;14483;47.844;9.660;2023-07-30T06:04:05;3.85;;;2.15;;
26920;SDS011;14483;47.844;9.660;2023-07-30T06:06:32;2.97;;;2.13;;
26920;SDS011;14483;47.844;9.660;2023-07-30T06:08:58;2.97;;;1.75;;
26920;SDS011;14483;47.844;9.660;2023-07-30T06:11:24;3.22;;;2.15;;
26920;SDS011;14483;47.844;9.660;2023-07-30T06:13:52;3.13;;;2.03;;
26920;SDS011;14483;47.844;9.660;2023-07-30T06:16:19;5.13;;;2.55;;
26920;SDS011;14483;47.844;9.660;2023-07-30T06:18:46;5.05;;;2.33;;
26920;SDS011;14483;47.844;9.660;2023-07-30T06:21:12;3.35;;;2.30;;
26920;SDS011;14483;47.844;9.660;2023-07-30T06:23:38;4.22;;;2.03;;
26920;SDS011;14483;47.844;9.660;2023-07-30T06:26:05;3.53;;;2.05;;
26920;SDS011;14483;47.844;9.660;2023-07-30T06:28:31;4.43;;;2.15;;
26920;SDS011;14483;47.844;9.660;2023-07-30T06:31:00;5.32;;;2.28;;
26920;SDS011;14483;47.844;9.660;2023-07-30T06:33:27;2.83;;;1.85;;
26920;SDS011;14483;47.844;9.660;2023-07-30T06:35:53;4.10;;;2.25;;
26920;SDS011;14483;47.844;9.660;2023-07-30T06:38:19;3.22;;;1.75;;
26920;SDS011;14483;47.844;9.660;2023-07-30T06:40:46;2.83;;;1.73;;
26920;SDS011;14483;47.844;9.660;2023-07-30T06:43:12;2.65;;;1.92;;
26920;SDS011;14483;47.844;9.660;2023-07-30T06:45:39;3.30;;;1.83;;
26920;SDS011;14483;47.844;9.660;2023-07-30T06:48:07;3.22;;;1.70;;
26920;SDS011;14483;47.844;9.660;2023-07-30T06:50:33;3.45;;;2.17;;
26920;SDS011;14483;47.844;9.660;2023-07-30T06:52:59;2.33;;;1.50;;
26920;SDS011;14483;47.844;9.660;2023-07-30T06:55:26;3.58;;;1.95;;
26920;SDS011;14483;47.844;9.660;2023-07-30T06:57:52;3.10;;;1.38;;
26920;SDS011;14483;47.844;9.660;2023-07-30T07:00:17;4.65;;;1.98;;
26920;SDS011;14483;47.844;9.660;2023-07-30T07:02:46;2.53;;;1.70;;
26920;SDS011;14483;47.844;9.660;2023-07-30T07:05:14;1.83;;;1.30;;
26920;SDS011;14483;47.844;9.660;2023-07-30T07:07:40;2.55;;;1.60;;
26920;SDS011;14483;47.844;9.660;2023-07-30T07:10:07;2.47;;;1.70;;
26920;SDS011;14483;47.844;9.660;2023-07-30T07:12:35;2.85;;;1.65;;
26920;SDS011;14483;47.844;9.660;2023-07-30T07:15:02;3.38;;;1.75;;
26920;SDS011;14483;47.844;9.660;2023-07-30T07:17:28;2.03;;;1.40;;
26920;SDS011;14483;47.844;9.660;2023-07-30T07:19:55;3.97;;;1.70;;
26920;SDS011;14483;47.844;9.660;2023-07-30T07:22:23;3.03;;;1.83;;
26920;SDS011;14483;47.844;9.660;2023-07-30T07:24:49;2.25;;;1.50;;
26920;SDS011;14483;47.844;9.660;2023-07-30T07:27:17;5.00;;;1.83;;
26920;SDS011;14483;47.844;9.660;2023-07-30T07:29:43;3.75;;;1.95;;
26920;SDS011;14483;47.844;9.660;2023-07-30T07:32:10;4.82;;;1.67;;
26920;SDS011;14483;47.844;9.660;2023-07-30T07:34:36;2.50;;;1.65;;
26920;SDS011;14483;47.844;9.660;2023-07-30T07:37:03;3.05;;;1.27;;
26920;SDS011;14483;47.844;9.660;2023-07-30T07:39:32;3.65;;;1.65;;
26920;SDS011;14483;47.844;9.660;2023-07-30T07:41:58;2.38;;;1.27;;
26920;SDS011;14483;47.844;9.660;2023-07-30T07:44:24;5.85;;;1.38;;
26920;SDS011;14483;47.844;9.660;2023-07-30T07:46:51;1.58;;;1.20;;
26920;SDS011;14483;47.844;9.660;2023-07-30T07:49:18;3.40;;;1.23;;
26920;SDS011;14483;47.844;9.660;2023-07-30T07:51:44;2.67;;;1.40;;
26920;SDS011;14483;47.844;9.660;2023-07-30T07:54:10;3.50;;;0.95;;
26920;SDS011;14483;47.844;9.660;2023-07-30T07:56:38;1.73;;;0.90;;
26920;SDS011;14483;47.844;9.660;2023-07-30T07:59:04;2.67;;;2.05;;
26920;SDS011;14483;47.844;9.660;2023-07-30T08:01:31;3.00;;;1.45;;
26920;SDS011;14483;47.844;9.660;2023-07-30T08:03:57;1.63;;;0.98;;
26920;SDS011;14483;47.844;9.660;2023-07-30T08:06:23;2.42;;;1.23;;
26920;SDS011;14483;47.844;9.660;2023-07-30T08:08:50;1.80;;;1.02;;
26920;SDS011;14483;47.844;9.660;2023-07-30T08:11:16;2.20;;;1.15;;
26920;SDS011;14483;47.844;9.660;2023-07-30T08:13:44;2.45;;;1.02;;
26920;SDS011;14483;47.844;9.660;2023-07-30T08:16:11;1.95;;;1.00;;
26920;SDS011;14483;47.844;9.660;2023-07-30T08:18:37;2.13;;;1.00;;
26920;SDS011;14483;47.844;9.660;2023-07-30T08:21:04;1.38;;;1.00;;
26920;SDS011;14483;47.844;9.660;2023-07-30T08:23:30;2.80;;;1.15;;
26920;SDS011;14483;47.844;9.660;2023-07-30T08:25:56;2.10;;;1.00;;
26920;SDS011;14483;47.844;9.660;2023-07-30T08:28:23;1.85;;;0.95;;
26920;SDS011;14483;47.844;9.660;2023-07-30T08:30:50;1.58;;;1.10;;
26920;SDS011;14483;47.844;9.660;2023-07-30T08:33:17;1.42;;;0.98;;
26920;SDS011;14483;47.844;9.660;2023-07-30T08:35:43;2.67;;;1.25;;
26920;SDS011;14483;47.844;9.660;2023-07-30T08:38:09;1.92;;;0.82;;
26920;SDS011;14483;47.844;9.660;2023-07-30T08:40:36;1.17;;;0.90;;
26920;SDS011;14483;47.844;9.660;2023-07-30T08:43:02;3.08;;;1.20;;
26920;SDS011;14483;47.844;9.660;2023-07-30T08:45:28;1.55;;;0.70;;
26920;SDS011;14483;47.844;9.660;2023-07-30T08:47:56;1.40;;;0.80;;
26920;SDS011;14483;47.844;9.660;2023-07-30T08:50:22;1.38;;;0.90;;
26920;SDS011;14483;47.844;9.660;2023-07-30T08:52:49;1.73;;;0.77;;
26920;SDS011;14483;47.844;9.660;2023-07-30T08:55:15;1.52;;;0.85;;
26920;SDS011;14483;47.844;9.660;2023-07-30T08:57:43;1.40;;;0.80;;
26920;SDS011;14483;47.844;9.660;2023-07-30T09:00:10;0.90;;;0.70;;
26920;SDS011;14483;47.844;9.660;2023-07-30T09:02:37;3.40;;;1.05;;
26920;SDS011;14483;47.844;9.660;2023-07-30T09:05:06;1.10;;;0.60;;
26920;SDS011;14483;47.844;9.660;2023-07-30T09:07:32;2.00;;;1.00;;
26920;SDS011;14483;47.844;9.660;2023-07-30T09:09:59;1.40;;;0.85;;
26920;SDS011;14483;47.844;9.660;2023-07-30T09:12:25;1.30;;;0.70;;
26920;SDS011;14483;47.844;9.660;2023-07-30T09:14:52;1.02;;;0.70;;
26920;SDS011;14483;47.844;9.660;2023-07-30T09:17:18;0.95;;;0.70;;
26920;SDS011;14483;47.844;9.660;2023-07-30T09:19:45;1.33;;;1.00;;
26920;SDS011;14483;47.844;9.660;2023-07-30T09:22:13;1.75;;;0.90;;
26920;SDS011;14483;47.844;9.660;2023-07-30T09:24:41;1.08;;;0.77;;
26920;SDS011;14483;47.844;9.660;2023-07-30T09:27:07;2.22;;;0.85;;
26920;SDS011;14483;47.844;9.660;2023-07-30T09:29:34;2.65;;;0.70;;
26920;SDS011;14483;47.844;9.660;2023-07-30T09:32:00;1.67;;;0.90;;
26920;SDS011;14483;47.844;9.660;2023-07-30T09:34:26;1.90;;;0.90;;
26920;SDS011;14483;47.844;9.660;2023-07-30T09:36:55;2.88;;;0.65;;
26920;SDS011;14483;47.844;9.660;2023-07-30T09:39:24;2.67;;;0.70;;
26920;SDS011;14483;47.844;9.660;2023-07-30T09:41:50;0.98;;;0.70;;
26920;SDS011;14483;47.844;9.660;2023-07-30T09:44:17;3.90;;;0.98;;
26920;SDS011;14483;47.844;9.660;2023-07-30T09:46:44;1.25;;;0.70;;
26920;SDS011;14483;47.844;9.660;2023-07-30T09:49:11;0.93;;;0.80;;
26920;SDS011;14483;47.844;9.660;2023-07-30T09:51:38;1.25;;;0.70;;
26920;SDS011;14483;47.844;9.660;2023-07-30T09:54:05;1.33;;;0.60;;
26920;SDS011;14483;47.844;9.660;2023-07-30T09:59:00;1.20;;;0.70;;
26920;SDS011;14483;47.844;9.660;2023-07-30T10:01:27;2.47;;;0.77;;
26920;SDS011;14483;47.844;9.660;2023-07-30T10:03:54;1.27;;;0.95;;
26920;SDS011;14483;47.844;9.660;2023-07-30T10:06:22;2.60;;;0.70;;
26920;SDS011;14483;47.844;9.660;2023-07-30T10:08:50;1.98;;;0.60;;
26920;SDS011;14483;47.844;9.660;2023-07-30T10:11:18;3.08;;;0.93;;
26920;SDS011;14483;47.844;9.660;2023-07-30T10:13:45;1.60;;;0.70;;
26920;SDS011;14483;47.844;9.660;2023-07-30T10:16:13;1.83;;;0.90;;
26920;SDS011;14483;47.844;9.660;2023-07-30T10:18:41;0.88;;;0.50;;
26920;SDS011;14483;47.844;9.660;2023-07-30T10:21:08;0.80;;;0.60;;
26920;SDS011;14483;47.844;9.660;2023-07-30T10:23:35;1.02;;;0.80;;
26920;SDS011;14483;47.844;9.660;2023-07-30T10:26:08;1.20;;;0.70;;
26920;SDS011;14483;47.844;9.660;2023-07-30T10:28:35;1.75;;;0.70;;
26920;SDS011;14483;47.844;9.660;2023-07-30T10:31:04;1.77;;;1.00;;
26920;SDS011;14483;47.844;9.660;2023-07-30T10:33:47;1.33;;;0.80;;
26920;SDS011;14483;47.844;9.660;2023-07-30T10:36:16;1.30;;;0.77;;
26920;SDS011;14483;47.844;9.660;2023-07-30T10:38:43;1.50;;;0.80;;
26920;SDS011;14483;47.844;9.660;2023-07-30T10:41:10;1.13;;;0.80;;
26920;SDS011;14483;47.844;9.660;2023-07-30T10:43:39;2.40;;;0.85;;
26920;SDS011;14483;47.844;9.660;2023-07-30T10:46:05;1.45;;;0.85;;
26920;SDS011;14483;47.844;9.660;2023-07-30T10:48:32;1.70;;;0.80;;
26920;SDS011;14483;47.844;9.660;2023-07-30T10:51:01;1.77;;;0.60;;
26920;SDS011;14483;47.844;9.660;2023-07-30T10:53:28;1.20;;;0.70;;
26920;SDS011;14483;47.844;9.660;2023-07-30T10:55:57;1.33;;;0.73;;
26920;SDS011;14483;47.844;9.660;2023-07-30T10:58:25;0.95;;;0.68;;
26920;SDS011;14483;47.844;9.660;2023-07-30T11:00:51;3.65;;;0.95;;
26920;SDS011;14483;47.844;9.660;2023-07-30T11:03:18;0.70;;;0.55;;
26920;SDS011;14483;47.844;9.660;2023-07-30T11:05:46;1.92;;;0.77;;
26920;SDS011;14483;47.844;9.660;2023-07-30T11:08:14;1.00;;;0.60;;
26920;SDS011;14483;47.844;9.660;2023-07-30T11:10:43;4.15;;;0.88;;
26920;SDS011;14483;47.844;9.660;2023-07-30T11:13:09;1.10;;;0.70;;
26920;SDS011;14483;47.844;9.660;2023-07-30T11:15:40;1.60;;;0.82;;
26920;SDS011;14483;47.844;9.660;2023-07-30T11:18:06;1.63;;;1.00;;
26920;SDS011;14483;47.844;9.660;2023-07-30T11:20:33;1.17;;;0.80;;
26920;SDS011;14483;47.844;9.660;2023-07-30T11:22:59;3.22;;;0.73;;
26920;SDS011;14483;47.844;9.660;2023-07-30T11:25:27;3.22;;;1.00;;
26920;SDS011;14483;47.844;9.660;2023-07-30T11:27:53;2.85;;;1.10;;
26920;SDS011;14483;47.844;9.660;2023-07-30T11:30:20;1.85;;;0.90;;
26920;SDS011;14483;47.844;9.660;2023-07-30T11:32:46;1.15;;;0.70;;
26920;SDS011;14483;47.844;9.660;2023-07-30T11:35:12;2.03;;;1.00;;
26920;SDS011;14483;47.844;9.660;2023-07-30T11:37:40;1.15;;;0.65;;
26920;SDS011;14483;47.844;9.660;2023-07-30T11:40:08;1.50;;;0.93;;
26920;SDS011;14483;47.844;9.660;2023-07-30T11:42:36;1.42;;;1.00;;
26920;SDS011;14483;47.844;9.660;2023-07-30T11:45:18;2.45;;;0.85;;
26920;SDS011;14483;47.844;9.660;2023-07-30T11:47:45;1.63;;;0.88;;
26920;SDS011;14483;47.844;9.660;2023-07-30T11:50:12;1.13;;;0.75;;
26920;SDS011;14483;47.844;9.660;2023-07-30T11:52:50;1.83;;;1.15;;
26920;SDS011;14483;47.844;9.660;2023-07-30T11:55:16;2.42;;;0.80;;
26920;SDS011;14483;47.844;9.660;2023-07-30T11:57:46;4.03;;;1.15;;
26920;SDS011;14483;47.844;9.660;2023-07-30T12:00:12;5.00;;;1.10;;
26920;SDS011;14483;47.844;9.660;2023-07-30T12:02:39;1.50;;;0.80;;
26920;SDS011;14483;47.844;9.660;2023-07-30T12:05:05;1.23;;;0.82;;
26920;SDS011;14483;47.844;9.660;2023-07-30T12:07:32;1.20;;;0.85;;
26920;SDS011;14483;47.844;9.660;2023-07-30T12:10:06;2.75;;;1.00;;
26920;SDS011;14483;47.844;9.660;2023-07-30T12:12:32;1.85;;;1.27;;
26920;SDS011;14483;47.844;9.660;2023-07-30T12:15:00;1.92;;;0.90;;
26920;SDS011;14483;47.844;9.660;2023-07-30T12:17:26;1.25;;;0.85;;
26920;SDS011;14483;47.844;9.660;2023-07-30T12:19:52;1.50;;;0.95;;
26920;SDS011;14483;47.844;9.660;2023-07-30T12:22:19;1.38;;;0.80;;
26920;SDS011;14483;47.844;9.660;2023-07-30T12:24:45;1.60;;;1.02;;
26920;SDS011;14483;47.844;9.660;2023-07-30T12:27:11;1.98;;;0.95;;
26920;SDS011;14483;47.844;9.660;2023-07-30T12:29:38;1.33;;;0.95;;
26920;SDS011;14483;47.844;9.660;2023-07-30T12:32:06;5.60;;;0.98;;
26920;SDS011;14483;47.844;9.660;2023-07-30T12:34:32;1.65;;;1.00;;
26920;SDS011;14483;47.844;9.660;2023-07-30T12:36:59;2.25;;;0.90;;
26920;SDS011;14483;47.844;9.660;2023-07-30T12:39:25;2.05;;;0.95;;
26920;SDS011;14483;47.844;9.660;2023-07-30T12:41:51;1.30;;;0.85;;
26920;SDS011;14483;47.844;9.660;2023-07-30T12:44:18;2.75;;;1.02;;
26920;SDS011;14483;47.844;9.660;2023-07-30T12:46:44;2.70;;;0.90;;
26920;SDS011;14483;47.844;9.660;2023-07-30T12:49:12;2.03;;;0.90;;
26920;SDS011;14483;47.844;9.660;2023-07-30T12:51:38;1.58;;;0.90;;
26920;SDS011;14483;47.844;9.660;2023-07-30T12:54:04;3.47;;;0.90;;
26920;SDS011;14483;47.844;9.660;2023-07-30T12:56:31;1.48;;;0.80;;
26920;SDS011;14483;47.844;9.660;2023-07-30T12:58:57;1.73;;;0.80;;
26920;SDS011;14483;47.844;9.660;2023-07-30T13:01:23;3.00;;;1.10;;
26920;SDS011;14483;47.844;9.660;2023-07-30T13:03:50;1.92;;;1.23;;
26920;SDS011;14483;47.844;9.660;2023-07-30T13:06:20;2.55;;;1.00;;
26920;SDS011;14483;47.844;9.660;2023-07-30T13:08:47;2.58;;;1.08;;
26920;SDS011;14483;47.844;9.660;2023-07-30T13:11:13;1.23;;;0.70;;
26920;SDS011;14483;47.844;9.660;2023-07-30T13:13:40;1.55;;;0.73;;
26920;SDS011;14483;47.844;9.660;2023-07-30T13:16:06;1.85;;;0.80;;
26920;SDS011;14483;47.844;9.660;2023-07-30T13:18:33;1.90;;;0.90;;
26920;SDS011;14483;47.844;9.660;2023-07-30T13:20:59;1.50;;;0.93;;
26920;SDS011;14483;47.844;9.660;2023-07-30T13:23:27;3.80;;;0.90;;
26920;SDS011;14483;47.844;9.660;2023-07-30T13:25:54;1.55;;;1.00;;
26920;SDS011;14483;47.844;9.660;2023-07-30T13:28:20;1.58;;;0.90;;
26920;SDS011;14483;47.844;9.660;2023-07-30T13:30:46;3.28;;;1.10;;
26920;SDS011;14483;47.844;9.660;2023-07-30T13:33:13;2.17;;;0.85;;
26920;SDS011;14483;47.844;9.660;2023-07-30T13:35:39;4.05;;;1.15;;
26920;SDS011;14483;47.844;9.660;2023-07-30T13:38:05;2.30;;;1.30;;
26920;SDS011;14483;47.844;9.660;2023-07-30T13:40:33;3.78;;;1.20;;
26920;SDS011;14483;47.844;9.660;2023-07-30T13:43:00;3.50;;;1.25;;
26920;SDS011;14483;47.844;9.660;2023-07-30T13:45:26;1.63;;;1.13;;
26920;SDS011;14483;47.844;9.660;2023-07-30T13:47:53;1.63;;;1.08;;
26920;SDS011;14483;47.844;9.660;2023-07-30T13:50:19;1.58;;;0.95;;
26920;SDS011;14483;47.844;9.660;2023-07-30T13:52:46;2.67;;;1.08;;
26920;SDS011;14483;47.844;9.660;2023-07-30T13:55:12;1.65;;;0.80;;
26920;SDS011;14483;47.844;9.660;2023-07-30T13:57:40;2.22;;;1.40;;
26920;SDS011;14483;47.844;9.660;2023-07-30T14:00:07;3.85;;;1.27;;
26920;SDS011;14483;47.844;9.660;2023-07-30T14:02:34;4.20;;;1.67;;
26920;SDS011;14483;47.844;9.660;2023-07-30T14:05:00;1.95;;;0.73;;
26920;SDS011;14483;47.844;9.660;2023-07-30T14:07:27;3.70;;;0.90;;
26920;SDS011;14483;47.844;9.660;2023-07-30T14:09:54;1.52;;;1.08;;
26920;SDS011;14483;47.844;9.660;2023-07-30T14:12:20;1.92;;;0.80;;
26920;SDS011;14483;47.844;9.660;2023-07-30T14:14:48;1.75;;;1.10;;
26920;SDS011;14483;47.844;9.660;2023-07-30T14:17:14;2.80;;;1.15;;
26920;SDS011;14483;47.844;9.660;2023-07-30T14:19:40;3.35;;;1.67;;
26920;SDS011;14483;47.844;9.660;2023-07-30T14:22:07;1.10;;;0.70;;
26920;SDS011;14483;47.844;9.660;2023-07-30T14:24:33;2.33;;;0.70;;
26920;SDS011;14483;47.844;9.660;2023-07-30T14:27:01;1.92;;;1.10;;
26920;SDS011;14483;47.844;9.660;2023-07-30T14:29:27;2.88;;;0.88;;
26920;SDS011;14483;47.844;9.660;2023-07-30T14:31:55;2.92;;;1.17;;
26920;SDS011;14483;47.844;9.660;2023-07-30T14:34:21;1.02;;;0.65;;
26920;SDS011;14483;47.844;9.660;2023-07-30T14:36:47;1.42;;;1.02;;
26920;SDS011;14483;47.844;9.660;2023-07-30T14:39:14;3.13;;;0.90;;
26920;SDS011;14483;47.844;9.660;2023-07-30T14:41:40;2.10;;;1.13;;
26920;SDS011;14483;47.844;9.660;2023-07-30T14:44:06;2.35;;;1.00;;
26920;SDS011;14483;47.844;9.660;2023-07-30T14:46:33;5.53;;;1.02;;
26920;SDS011;14483;47.844;9.660;2023-07-30T14:49:00;1.40;;;0.70;;